Time;durP1;ratioP1;P1;durP2;ratioP2;P2;SDS_P1;SDS_P2;PMS_P1;PMS_P2;Temp;Humidity;BMP_temperature;BMP_pressure;BME280_temperature;BME280_humidity;BME280_pressure;Samples;Min_cycle;Max_cycle;Signal;HPM_P1;HPM_P2
2022/10/21 00:02:30;;;;;;;7.60;6.70;;;8.00;99.90;;;;;;5197330;28;20190;-49
2022/10/21 00:05:01;;;;;;;8.60;6.73;;;7.90;99.90;;;;;;5192911;28;20276;-51
2022/10/21 00:07:33;;;;;;;9.80;7.90;;;7.90;99.90;;;;;;5197747;28;20208;-51
2022/10/21 00:10:04;;;;;;;9.37;6.40;;;7.90;99.90;;;;;;5183249;28;20175;-49
2022/10/21 00:12:36;;;;;;;10.80;6.87;;;7.90;99.90;;;;;;5186196;28;20441;-49
2022/10/21 00:15:08;;;;;;;7.47;5.77;;;7.90;99.90;;;;;;5202474;28;20684;-50
2022/10/21 00:17:41;;;;;;;10.00;6.20;;;7.90;99.90;;;;;;5198567;28;20886;-50
2022/10/21 00:20:12;;;;;;;13.13;7.03;;;7.90;99.90;;;;;;5201564;28;20435;-50
2022/10/21 00:22:43;;;;;;;8.43;6.17;;;8.00;99.90;;;;;;5199325;28;20432;-49
2022/10/21 00:25:13;;;;;;;11.63;6.53;;;7.90;99.90;;;;;;5201111;28;20187;-52
2022/10/21 00:27:44;;;;;;;8.93;6.80;;;7.90;99.90;;;;;;5204724;28;20207;-50
2022/10/21 00:30:14;;;;;;;7.63;6.77;;;8.00;99.90;;;;;;5197854;28;20188;-52
2022/10/21 00:32:45;;;;;;;6.83;6.17;;;8.00;99.90;;;;;;5198547;28;20179;-51
2022/10/21 00:35:15;;;;;;;7.47;6.23;;;7.90;99.90;;;;;;5198583;28;20232;-50
2022/10/21 00:37:46;;;;;;;10.60;7.50;;;8.00;99.90;;;;;;5193262;28;20199;-50
2022/10/21 00:40:17;;;;;;;9.30;6.93;;;8.00;99.90;;;;;;5201303;28;20186;-52
2022/10/21 00:42:47;;;;;;;7.90;5.97;;;7.90;99.90;;;;;;5203426;28;20211;-50
2022/10/21 00:45:21;;;;;;;7.07;6.37;;;8.00;99.90;;;;;;5202751;28;20602;-50
2022/10/21 00:48:02;;;;;;;7.10;6.40;;;8.00;99.90;;;;;;5200507;28;20272;-50
2022/10/21 00:50:37;;;;;;;8.83;7.03;;;8.00;99.90;;;;;;5194085;28;20800;-52
2022/10/21 00:53:12;;;;;;;7.70;6.43;;;8.10;99.90;;;;;;5198317;28;20445;-49
2022/10/21 00:55:48;;;;;;;8.33;5.70;;;8.20;99.90;;;;;;5197793;28;20470;-49
2022/10/21 00:58:22;;;;;;;9.23;6.70;;;8.10;99.90;;;;;;5200790;28;20458;-50
2022/10/21 01:00:56;;;;;;;9.77;6.57;;;8.30;99.90;;;;;;5198469;28;20438;-50
2022/10/21 01:03:28;;;;;;;10.07;6.30;;;8.30;99.90;;;;;;5191800;28;20954;-50
2022/10/21 01:06:03;;;;;;;11.50;7.10;;;8.30;99.90;;;;;;5193088;28;20525;-50
2022/10/21 01:08:34;;;;;;;8.13;6.77;;;8.30;99.90;;;;;;5196581;28;20954;-50
2022/10/21 01:11:18;;;;;;;7.00;5.63;;;8.30;99.90;;;;;;5202446;28;20445;-51
2022/10/21 01:14:16;;;;;;;9.10;6.80;;;8.50;99.90;;;;;;5204726;28;20438;-49
2022/10/21 01:17:19;;;;;;;13.87;7.83;;;8.40;99.90;;;;;;5203936;28;20466;-48
2022/10/21 01:20:09;;;;;;;10.57;7.50;;;8.40;99.90;;;;;;5204143;28;20442;-49
2022/10/21 01:22:55;;;;;;;12.57;6.93;;;8.40;99.90;;;;;;5197267;28;20770;-51
2022/10/21 01:25:55;;;;;;;8.73;7.33;;;8.30;99.90;;;;;;5200518;28;20885;-51
2022/10/21 01:28:51;;;;;;;9.17;7.30;;;8.40;99.90;;;;;;5204465;28;20455;-51
2022/10/21 01:31:49;;;;;;;8.77;5.90;;;8.40;99.90;;;;;;5205705;28;20430;-51
2022/10/21 01:34:31;;;;;;;9.10;6.70;;;8.40;99.90;;;;;;5194689;28;20525;-52
2022/10/21 01:37:17;;;;;;;11.50;6.80;;;8.40;99.90;;;;;;5203816;28;20489;-51
2022/10/21 01:39:55;;;;;;;8.83;6.57;;;8.40;99.90;;;;;;5205921;28;20993;-49
2022/10/21 01:42:41;;;;;;;12.03;7.97;;;8.30;99.90;;;;;;5194058;28;20438;-50
2022/10/21 01:45:21;;;;;;;11.20;8.33;;;8.40;99.90;;;;;;5203866;28;20462;-50
2022/10/21 01:47:55;;;;;;;13.00;8.27;;;8.40;99.90;;;;;;5190594;28;20552;-51
2022/10/21 01:50:29;;;;;;;15.43;8.27;;;8.40;99.90;;;;;;5187975;28;20431;-49
2022/10/21 01:53:06;;;;;;;8.13;7.33;;;8.40;99.90;;;;;;5205823;28;20495;-52
2022/10/21 01:55:38;;;;;;;21.33;9.00;;;8.40;99.90;;;;;;5198486;28;20553;-49
2022/10/21 01:58:14;;;;;;;14.90;8.97;;;8.30;99.90;;;;;;5203292;28;20824;-51
2022/10/21 02:00:46;;;;;;;12.20;8.27;;;8.30;99.90;;;;;;5197480;28;20433;-50
2022/10/21 02:03:22;;;;;;;17.10;9.67;;;8.30;99.90;;;;;;5199971;28;20426;-46
2022/10/21 02:05:52;;;;;;;13.40;9.77;;;8.20;99.90;;;;;;5198787;28;20430;-52
2022/10/21 02:08:23;;;;;;;16.63;9.03;;;8.20;99.90;;;;;;5200923;28;20577;-49
2022/10/21 02:10:57;;;;;;;24.77;8.53;;;8.20;99.90;;;;;;5206961;28;20203;-48
2022/10/21 02:13:55;;;;;;;11.30;9.27;;;8.20;99.90;;;;;;5203240;28;20187;-46
2022/10/21 02:16:30;;;;;;;12.07;8.90;;;8.20;99.90;;;;;;5189152;28;20528;-46
2022/10/21 02:19:00;;;;;;;16.83;10.23;;;8.10;99.90;;;;;;5206295;28;20492;-48
2022/10/21 02:21:35;;;;;;;12.33;9.40;;;8.20;99.90;;;;;;5202747;28;20600;-48
2022/10/21 02:24:20;;;;;;;14.00;8.63;;;8.30;99.90;;;;;;5187209;28;20250;-47
2022/10/21 02:26:51;;;;;;;11.27;8.00;;;8.30;99.90;;;;;;5205653;28;20465;-47
2022/10/21 02:29:27;;;;;;;12.47;8.17;;;8.40;99.90;;;;;;5199296;28;20911;-49
2022/10/21 02:32:35;;;;;;;13.30;8.17;;;8.50;99.90;;;;;;5199857;28;20537;-46
2022/10/21 02:35:29;;;;;;;13.47;8.00;;;8.50;99.90;;;;;;5197078;28;21058;-46
2022/10/21 02:38:13;;;;;;;11.83;8.57;;;8.50;99.90;;;;;;5188908;28;20458;-46
2022/10/21 02:40:55;;;;;;;8.83;7.30;;;8.50;99.90;;;;;;5201933;28;20427;-49
2022/10/21 02:43:33;;;;;;;9.93;7.90;;;8.60;99.90;;;;;;5207594;28;20407;-48
2022/10/21 02:46:10;;;;;;;10.47;8.20;;;8.50;99.90;;;;;;5218119;28;20430;-47
2022/10/21 02:48:45;;;;;;;13.97;7.90;;;8.60;99.90;;;;;;5190202;28;20539;-47
2022/10/21 02:51:16;;;;;;;11.00;8.70;;;8.50;99.90;;;;;;5200722;28;20448;-48
2022/10/21 02:53:47;;;;;;;19.00;9.07;;;8.50;99.90;;;;;;5197908;28;20435;-49
2022/10/21 02:56:17;;;;;;;21.20;8.00;;;8.40;99.90;;;;;;5202591;28;20203;-46
2022/10/21 02:58:48;;;;;;;10.97;7.40;;;8.40;99.90;;;;;;5205021;28;20195;-47
2022/10/21 03:01:18;;;;;;;10.03;8.03;;;8.30;99.90;;;;;;5206660;28;20210;-47
2022/10/21 03:03:49;;;;;;;12.43;8.47;;;8.40;99.90;;;;;;5221367;28;20203;-48
2022/10/21 03:06:19;;;;;;;15.50;8.23;;;8.30;99.90;;;;;;5200055;28;20276;-46
2022/10/21 03:08:50;;;;;;;11.70;8.30;;;8.30;99.90;;;;;;5195856;28;20191;-46
2022/10/21 03:11:20;;;;;;;10.27;7.77;;;8.30;99.90;;;;;;5199093;28;20187;-47
2022/10/21 03:13:51;;;;;;;13.20;8.03;;;8.30;99.90;;;;;;5201048;28;20191;-46
2022/10/21 03:16:22;;;;;;;11.80;8.33;;;8.30;99.90;;;;;;5204948;28;20218;-46
2022/10/21 03:18:52;;;;;;;8.63;7.50;;;8.40;99.90;;;;;;5196632;28;20551;-48
2022/10/21 03:21:23;;;;;;;13.70;8.27;;;8.50;99.90;;;;;;5204560;28;20726;-47
2022/10/21 03:23:53;;;;;;;10.10;8.30;;;8.50;99.90;;;;;;5197119;28;20274;-47
2022/10/21 03:26:24;;;;;;;12.20;9.10;;;8.50;99.90;;;;;;5203151;28;20204;-46
2022/10/21 03:28:54;;;;;;;9.90;8.17;;;8.60;99.90;;;;;;5202016;28;20202;-46
2022/10/21 03:31:25;;;;;;;10.23;8.57;;;8.70;99.90;;;;;;5205454;28;20172;-47
2022/10/21 03:33:56;;;;;;;11.60;8.23;;;8.70;99.90;;;;;;5198934;28;20259;-46
2022/10/21 03:36:26;;;;;;;9.90;8.20;;;8.80;99.90;;;;;;5201042;28;20285;-46
2022/10/21 03:38:57;;;;;;;15.33;8.60;;;8.80;99.90;;;;;;5187801;28;20215;-47
2022/10/21 03:41:27;;;;;;;13.00;8.60;;;8.90;99.90;;;;;;5204609;28;20453;-47
2022/10/21 03:43:58;;;;;;;11.87;8.60;;;8.90;99.90;;;;;;5197965;28;20180;-47
2022/10/21 03:46:28;;;;;;;20.03;8.83;;;8.90;99.90;;;;;;5202818;28;20649;-47
2022/10/21 03:48:59;;;;;;;9.97;8.77;;;9.00;99.90;;;;;;5198566;28;20183;-48
2022/10/21 03:51:29;;;;;;;12.10;8.10;;;8.90;99.90;;;;;;5202737;28;20521;-47
2022/10/21 03:54:00;;;;;;;18.80;9.20;;;8.90;99.90;;;;;;5195353;28;20732;-49
2022/10/21 03:56:31;;;;;;;14.13;8.97;;;9.00;99.90;;;;;;5213032;23;20761;-48
2022/10/21 03:59:01;;;;;;;10.57;8.57;;;9.00;99.90;;;;;;5258694;28;20222;-47
2022/10/21 04:01:32;;;;;;;13.37;8.50;;;9.00;99.90;;;;;;5242093;28;20189;-47
2022/10/21 04:04:03;;;;;;;10.03;8.80;;;9.00;99.90;;;;;;5232082;28;20178;-48
2022/10/21 04:06:33;;;;;;;13.60;9.70;;;9.00;99.90;;;;;;5236388;28;20281;-48
2022/10/21 04:09:04;;;;;;;13.60;9.27;;;9.00;99.90;;;;;;5242139;28;20189;-48
2022/10/21 04:11:34;;;;;;;20.33;9.30;;;9.00;99.90;;;;;;5241508;28;20182;-47
2022/10/21 04:14:05;;;;;;;20.77;9.20;;;9.00;99.90;;;;;;5237313;28;20207;-48
2022/10/21 04:16:36;;;;;;;10.93;8.70;;;9.00;99.90;;;;;;5242392;28;20210;-48
2022/10/21 04:19:06;;;;;;;16.00;9.60;;;9.00;99.90;;;;;;5239777;28;20673;-48
2022/10/21 04:21:37;;;;;;;11.07;9.37;;;8.90;99.90;;;;;;5238484;28;20278;-47
2022/10/21 04:24:07;;;;;;;11.63;9.50;;;8.90;99.90;;;;;;5243845;28;20178;-48
2022/10/21 04:26:38;;;;;;;16.47;10.47;;;8.90;99.90;;;;;;5243679;28;20178;-47
2022/10/21 04:29:09;;;;;;;13.53;9.83;;;8.90;99.90;;;;;;5240448;28;20298;-47
2022/10/21 04:31:39;;;;;;;11.17;9.43;;;8.90;99.90;;;;;;5242569;28;20182;-47
2022/10/21 04:34:10;;;;;;;17.97;10.50;;;8.80;99.90;;;;;;5243449;28;20609;-47
2022/10/21 04:36:40;;;;;;;20.83;10.87;;;8.80;99.90;;;;;;5232391;28;20198;-48
2022/10/21 04:39:11;;;;;;;10.53;9.43;;;8.80;99.90;;;;;;5241379;28;20185;-48
2022/10/21 04:41:43;;;;;;;13.23;9.70;;;8.80;99.90;;;;;;5236816;28;20202;-48
2022/10/21 04:44:13;;;;;;;13.63;10.27;;;8.80;99.90;;;;;;5242598;28;20250;-47
2022/10/21 04:46:44;;;;;;;14.33;10.93;;;8.80;99.90;;;;;;5241388;28;20568;-48
2022/10/21 04:49:14;;;;;;;14.13;11.03;;;8.70;99.90;;;;;;5243955;28;20709;-50
2022/10/21 04:51:45;;;;;;;16.87;10.57;;;8.70;99.90;;;;;;5245288;28;20554;-50
2022/10/21 04:54:16;;;;;;;14.27;10.27;;;8.70;99.90;;;;;;5246258;28;20205;-52
2022/10/21 04:56:46;;;;;;;15.87;10.37;;;8.70;99.90;;;;;;5245873;28;20538;-51
2022/10/21 04:59:17;;;;;;;22.70;12.07;;;8.70;99.90;;;;;;5233182;28;20190;-49
2022/10/21 05:01:48;;;;;;;12.97;9.93;;;8.80;99.90;;;;;;5236359;28;20179;-49
2022/10/21 05:04:18;;;;;;;18.40;10.87;;;8.80;99.90;;;;;;5241476;28;20646;-51
2022/10/21 05:06:49;;;;;;;12.60;10.60;;;8.80;99.90;;;;;;5238733;28;20647;-52
2022/10/21 05:09:19;;;;;;;13.30;10.13;;;8.80;99.90;;;;;;5247285;28;20261;-51
2022/10/21 05:11:50;;;;;;;16.63;11.57;;;8.80;99.90;;;;;;5246892;28;20189;-51
2022/10/21 05:14:20;;;;;;;18.53;10.67;;;8.80;99.90;;;;;;5248640;28;20312;-51
2022/10/21 05:16:51;;;;;;;12.43;9.53;;;8.90;99.90;;;;;;5249419;28;20220;-49
2022/10/21 05:19:21;;;;;;;25.07;10.53;;;8.80;99.90;;;;;;5243349;28;20183;-51
2022/10/21 05:21:52;;;;;;;14.20;10.13;;;8.90;99.90;;;;;;5242144;28;20186;-50
2022/10/21 05:24:23;;;;;;;19.83;10.63;;;8.80;99.90;;;;;;5244370;28;20194;-52
2022/10/21 05:26:53;;;;;;;12.70;9.37;;;8.90;99.90;;;;;;5244546;28;20252;-51
2022/10/21 05:29:24;;;;;;;16.50;10.27;;;8.90;99.90;;;;;;5244757;28;20642;-52
2022/10/21 05:31:54;;;;;;;14.47;9.43;;;9.00;99.90;;;;;;5240863;28;20194;-50
2022/10/21 05:34:25;;;;;;;11.97;9.30;;;9.00;99.90;;;;;;5246919;28;20265;-50
2022/10/21 05:36:55;;;;;;;11.70;9.27;;;9.10;99.90;;;;;;5240934;28;20232;-48
2022/10/21 05:39:26;;;;;;;18.70;9.40;;;9.00;99.90;;;;;;5243600;28;20609;-48
2022/10/21 05:41:57;;;;;;;16.47;10.10;;;9.00;99.90;;;;;;5246751;28;20182;-48
2022/10/21 05:44:27;;;;;;;13.23;9.57;;;9.00;99.90;;;;;;5246145;28;20260;-49
2022/10/21 05:46:58;;;;;;;23.33;9.70;;;9.00;99.90;;;;;;5249992;28;20517;-48
2022/10/21 05:49:28;;;;;;;12.30;9.70;;;9.10;99.90;;;;;;5247731;28;20240;-48
2022/10/21 05:52:00;;;;;;;19.90;11.07;;;9.10;99.90;;;;;;5246287;28;20182;-49
2022/10/21 05:54:31;;;;;;;23.30;11.23;;;9.10;99.90;;;;;;5246880;28;20214;-47
2022/10/21 05:57:02;;;;;;;17.33;10.13;;;9.20;99.90;;;;;;5244442;28;20918;-47
2022/10/21 05:59:32;;;;;;;16.77;9.87;;;9.20;99.90;;;;;;5248569;28;20553;-47
2022/10/21 06:02:03;;;;;;;13.90;10.03;;;9.20;99.90;;;;;;5246510;28;20881;-46
2022/10/21 06:04:34;;;;;;;16.33;9.93;;;9.20;99.90;;;;;;5248685;28;20235;-46
2022/10/21 06:07:05;;;;;;;14.00;10.93;;;9.20;99.90;;;;;;5248216;28;20691;-46
2022/10/21 06:09:36;;;;;;;12.07;9.50;;;9.30;99.90;;;;;;5241448;28;20178;-52
2022/10/21 06:12:07;;;;;;;24.73;11.20;;;9.40;99.90;;;;;;5243607;28;20951;-54
2022/10/21 06:14:37;;;;;;;13.70;9.20;;;9.40;99.90;;;;;;5238262;28;20429;-50
2022/10/21 06:17:08;;;;;;;14.07;9.83;;;9.50;99.90;;;;;;5244072;28;20202;-52
2022/10/21 06:19:39;;;;;;;13.77;8.70;;;9.50;99.90;;;;;;5239430;28;20191;-53
2022/10/21 06:22:09;;;;;;;14.30;9.27;;;9.60;99.90;;;;;;5246010;28;20185;-52
2022/10/21 06:24:40;;;;;;;13.27;8.60;;;9.80;99.90;;;;;;5237585;28;20182;-51
2022/10/21 06:27:10;;;;;;;15.80;8.90;;;9.80;99.90;;;;;;5242401;28;20199;-53
2022/10/21 06:29:41;;;;;;;20.37;11.03;;;9.90;99.90;;;;;;5240338;28;20218;-52
2022/10/21 06:32:11;;;;;;;13.27;9.50;;;9.90;99.90;;;;;;5236898;28;20194;-51
2022/10/21 06:34:42;;;;;;;17.40;10.50;;;10.00;99.90;;;;;;5238470;28;20191;-51
2022/10/21 06:37:12;;;;;;;12.83;9.87;;;9.90;99.90;;;;;;5240776;28;20238;-51
2022/10/21 06:39:43;;;;;;;13.60;9.47;;;9.70;99.90;;;;;;5244646;28;20193;-50
2022/10/21 06:42:14;;;;;;;17.47;10.97;;;9.60;99.90;;;;;;5237863;28;20187;-53
2022/10/21 06:44:45;;;;;;;18.47;10.77;;;9.50;99.90;;;;;;5240487;28;20294;-53
2022/10/21 06:47:16;;;;;;;12.63;10.77;;;9.40;99.90;;;;;;5243953;28;20588;-51
2022/10/21 06:49:46;;;;;;;19.20;10.70;;;9.40;99.90;;;;;;5243233;28;20181;-52
2022/10/21 06:52:17;;;;;;;11.60;9.50;;;9.40;99.90;;;;;;5244915;28;20178;-51
2022/10/21 06:54:47;;;;;;;19.80;11.53;;;9.50;99.90;;;;;;5243267;28;20277;-50
2022/10/21 06:57:18;;;;;;;17.40;10.47;;;9.50;99.90;;;;;;5240912;28;20704;-51
2022/10/21 06:59:48;;;;;;;20.70;11.47;;;9.50;99.90;;;;;;5242871;28;20311;-52
2022/10/21 07:02:19;;;;;;;20.47;11.23;;;9.50;99.90;;;;;;5233893;28;20336;-47
2022/10/21 07:04:51;;;;;;;21.33;11.93;;;9.60;99.90;;;;;;5232863;28;20201;-51
2022/10/21 07:07:22;;;;;;;25.70;12.30;;;9.60;99.90;;;;;;5242312;28;20519;-53
2022/10/21 07:09:56;;;;;;;15.10;10.77;;;9.70;99.90;;;;;;5229289;28;20443;-51
2022/10/21 07:12:29;;;;;;;15.90;11.30;;;9.80;99.90;;;;;;5232522;28;20290;-51
2022/10/21 07:14:59;;;;;;;18.17;11.27;;;10.00;99.90;;;;;;5235215;28;20493;-50
2022/10/21 07:17:30;;;;;;;20.27;12.40;;;10.00;99.90;;;;;;5236894;28;20461;-50
2022/10/21 07:20:00;;;;;;;21.00;10.20;;;10.10;99.90;;;;;;5239180;28;20192;-51
2022/10/21 07:22:31;;;;;;;15.90;11.27;;;10.20;99.90;;;;;;5240786;28;20190;-48
2022/10/21 07:25:02;;;;;;;12.93;10.20;;;10.30;99.90;;;;;;5244911;28;20236;-48
2022/10/21 07:27:33;;;;;;;11.37;10.10;;;10.40;99.90;;;;;;5240242;28;20461;-48
2022/10/21 07:30:06;;;;;;;15.83;9.83;;;10.60;99.90;;;;;;5241807;28;20213;-49
2022/10/21 07:32:37;;;;;;;13.47;9.33;;;10.60;99.90;;;;;;5242421;28;20608;-50
2022/10/21 07:35:08;;;;;;;14.63;10.20;;;10.60;99.90;;;;;;5241699;28;20472;-50
2022/10/21 07:37:38;;;;;;;13.87;9.47;;;10.60;99.90;;;;;;5233831;28;20217;-49
2022/10/21 07:40:11;;;;;;;10.13;8.57;;;10.90;99.90;;;;;;5237567;28;20599;-50
2022/10/21 07:42:41;;;;;;;12.47;8.97;;;10.90;99.90;;;;;;5243676;28;20542;-50
2022/10/21 07:45:12;;;;;;;11.80;9.33;;;10.80;99.90;;;;;;5245769;28;20485;-48
2022/10/21 07:47:42;;;;;;;8.83;7.90;;;10.80;99.90;;;;;;5245903;28;20225;-50
2022/10/21 07:50:13;;;;;;;14.70;9.17;;;10.90;99.90;;;;;;5246075;28;20193;-51
2022/10/21 07:52:46;;;;;;;13.53;8.67;;;11.00;99.90;;;;;;5244099;28;20210;-51
2022/10/21 07:55:17;;;;;;;12.67;8.60;;;11.10;99.90;;;;;;5235821;28;20214;-50
2022/10/21 07:57:47;;;;;;;16.97;8.73;;;11.20;99.90;;;;;;5242908;28;20471;-48
2022/10/21 08:00:18;;;;;;;14.17;9.60;;;11.30;99.90;;;;;;5240500;28;20195;-48
2022/10/21 08:02:55;;;;;;;9.87;8.40;;;11.50;99.90;;;;;;5246032;28;20197;-49
2022/10/21 08:05:25;;;;;;;11.23;8.40;;;11.40;99.90;;;;;;5242293;28;20185;-49
2022/10/21 08:07:57;;;;;;;13.43;9.40;;;11.50;99.90;;;;;;5247203;28;20451;-50
2022/10/21 08:10:28;;;;;;;18.77;9.50;;;11.60;99.90;;;;;;5243973;28;20662;-49
2022/10/21 08:12:58;;;;;;;14.60;8.80;;;11.80;99.90;;;;;;5245145;28;20443;-48
2022/10/21 08:15:29;;;;;;;11.57;8.40;;;11.90;99.90;;;;;;5241313;28;20218;-48
2022/10/21 08:17:59;;;;;;;18.43;9.93;;;12.00;99.90;;;;;;5244791;28;20194;-50
2022/10/21 08:20:30;;;;;;;16.50;9.40;;;12.20;99.90;;;;;;5243368;28;20190;-49
2022/10/21 08:23:01;;;;;;;19.43;8.80;;;12.10;99.90;;;;;;5246667;28;20236;-49
2022/10/21 08:25:31;;;;;;;8.20;7.33;;;12.00;99.90;;;;;;5248683;28;20186;-49
2022/10/21 08:28:04;;;;;;;9.53;8.57;;;12.10;99.90;;;;;;5247231;28;20288;-50
2022/10/21 08:30:34;;;;;;;9.63;8.53;;;12.00;99.90;;;;;;5249427;28;20179;-49
2022/10/21 08:33:05;;;;;;;13.43;8.53;;;11.90;99.90;;;;;;5243422;28;20513;-48
2022/10/21 08:35:35;;;;;;;9.93;7.70;;;11.80;99.90;;;;;;5244526;28;20290;-49
2022/10/21 08:38:07;;;;;;;15.03;8.73;;;12.00;99.90;;;;;;5250816;28;20676;-47
2022/10/21 08:40:45;;;;;;;12.30;9.00;;;12.00;99.90;;;;;;5247084;28;20183;-50
2022/10/21 08:43:25;;;;;;;19.30;9.27;;;11.90;99.90;;;;;;5245568;28;20740;-50
2022/10/21 08:46:20;;;;;;;10.70;9.10;;;12.00;99.90;;;;;;5253450;28;20449;-47
2022/10/21 08:48:59;;;;;;;13.03;8.90;;;12.20;99.90;;;;;;5248365;28;20452;-47
2022/10/21 08:51:35;;;;;;;9.77;7.50;;;12.40;99.90;;;;;;5245988;28;20433;-53
2022/10/21 08:54:25;;;;;;;11.40;8.43;;;12.50;99.90;;;;;;5241843;28;20428;-48
2022/10/21 08:56:59;;;;;;;11.23;8.97;;;12.60;99.90;;;;;;5250587;28;20464;-50
2022/10/21 08:59:29;;;;;;;15.30;8.10;;;12.60;99.90;;;;;;5243215;28;20448;-48
2022/10/21 09:02:07;;;;;;;15.63;8.70;;;12.80;99.90;;;;;;5249051;28;20425;-48
2022/10/21 09:04:53;;;;;;;23.70;8.60;;;12.90;99.90;;;;;;5244786;28;22248;-47
2022/10/21 09:07:35;;;;;;;12.50;9.20;;;13.20;99.90;;;;;;5244864;28;20467;-48
2022/10/21 09:10:19;;;;;;;11.20;8.87;;;13.30;99.90;;;;;;5249871;28;20799;-47
2022/10/21 09:12:52;;;;;;;19.20;10.20;;;13.40;99.90;;;;;;5239502;28;20840;-51
2022/10/21 09:15:47;;;;;;;15.80;8.57;;;13.40;99.90;;;;;;5243151;28;20472;-53
2022/10/21 09:18:31;;;;;;;8.50;7.70;;;13.50;99.90;;;;;;5245441;28;20459;-52
2022/10/21 09:21:33;;;;;;;9.80;8.63;;;13.50;99.90;;;;;;5241903;28;20956;-53
2022/10/21 09:24:31;;;;;;;20.80;7.83;;;13.70;99.90;;;;;;5243255;28;20444;-51
2022/10/21 09:27:03;;;;;;;13.90;8.10;;;13.80;99.90;;;;;;5246639;28;20507;-53
2022/10/21 09:29:41;;;;;;;11.93;9.10;;;13.60;99.90;;;;;;5245898;28;20491;-52
2022/10/21 09:32:22;;;;;;;11.67;8.00;;;13.50;99.90;;;;;;5250270;28;20468;-47
2022/10/21 09:35:16;;;;;;;17.83;8.77;;;13.80;99.90;;;;;;5249625;28;22386;-47
2022/10/21 09:37:55;;;;;;;16.03;9.03;;;14.00;99.90;;;;;;5247022;28;20534;-46
2022/10/21 09:40:28;;;;;;;13.10;9.33;;;14.20;99.90;;;;;;5249134;28;20459;-47
2022/10/21 09:43:00;;;;;;;10.97;7.50;;;14.30;99.90;;;;;;5248908;28;20444;-47
2022/10/21 09:45:35;;;;;;;11.50;7.37;;;14.50;99.90;;;;;;5245830;28;20802;-46
2022/10/21 09:48:26;;;;;;;16.20;8.87;;;14.40;99.90;;;;;;5248401;28;20531;-47
2022/10/21 09:51:08;;;;;;;10.77;9.20;;;14.40;99.90;;;;;;5245148;28;21025;-48
2022/10/21 09:53:52;;;;;;;11.37;8.47;;;14.40;99.90;;;;;;5247149;28;20769;-46
2022/10/21 09:56:42;;;;;;;10.33;9.10;;;14.50;99.90;;;;;;5247146;28;20983;-48
2022/10/21 09:59:17;;;;;;;16.10;8.70;;;14.50;99.90;;;;;;5204647;22;20507;-52
2022/10/21 10:01:48;;;;;;;15.27;9.73;;;14.70;99.90;;;;;;5193064;28;20500;-50
2022/10/21 10:04:31;;;;;;;10.27;8.93;;;14.80;99.90;;;;;;5188282;28;20442;-50
2022/10/21 10:07:26;;;;;;;12.73;9.47;;;14.80;99.90;;;;;;5185408;28;20443;-51
2022/10/21 10:09:57;;;;;;;15.63;8.93;;;14.70;99.90;;;;;;5176127;28;20439;-54
2022/10/21 10:12:28;;;;;;;14.43;9.20;;;15.00;99.90;;;;;;5177916;28;20439;-51
2022/10/21 10:15:24;;;;;;;19.50;9.70;;;14.90;99.90;;;;;;5182953;28;20240;-50
2022/10/21 10:17:56;;;;;;;15.70;8.70;;;14.90;99.90;;;;;;5184520;28;20475;-50
2022/10/21 10:20:26;;;;;;;11.83;7.73;;;15.10;99.90;;;;;;5173612;28;20435;-49
2022/10/21 10:22:57;;;;;;;18.00;8.80;;;15.40;99.90;;;;;;5183239;28;20488;-50
2022/10/21 10:25:33;;;;;;;14.00;7.83;;;15.50;99.90;;;;;;5182172;28;20271;-50
2022/10/21 10:28:18;;;;;;;17.70;9.77;;;15.80;99.90;;;;;;5184987;28;20233;-50
2022/10/21 10:30:53;;;;;;;16.23;8.13;;;15.90;99.90;;;;;;5177791;28;20447;-52
2022/10/21 10:33:30;;;;;;;13.50;8.27;;;15.90;99.90;;;;;;5176263;28;20488;-52
2022/10/21 10:36:05;;;;;;;14.70;8.73;;;15.90;99.90;;;;;;5182602;28;20467;-52
2022/10/21 10:38:44;;;;;;;11.93;8.20;;;16.10;99.90;;;;;;5185750;28;20450;-50
2022/10/21 10:41:17;;;;;;;12.10;7.87;;;16.10;99.90;;;;;;5186224;28;20580;-50
2022/10/21 10:43:51;;;;;;;9.70;8.47;;;15.90;99.90;;;;;;5179087;28;20447;-49
2022/10/21 10:46:32;;;;;;;11.50;9.07;;;15.70;99.90;;;;;;5184898;28;20852;-48
2022/10/21 10:49:21;;;;;;;10.63;9.10;;;15.30;99.90;;;;;;5176207;28;20455;-49
2022/10/21 10:52:10;;;;;;;17.30;10.27;;;15.00;99.90;;;;;;5179287;28;20430;-49
2022/10/21 10:54:41;;;;;;;10.33;8.90;;;14.90;99.90;;;;;;5181790;28;20450;-51
2022/10/21 10:57:19;;;;;;;12.10;9.60;;;15.00;99.90;;;;;;5176495;28;20514;-50
2022/10/21 11:00:05;;;;;;;12.10;9.80;;;15.20;99.90;;;;;;5182450;28;20436;-51
2022/10/21 11:02:46;;;;;;;13.57;8.70;;;15.40;99.90;;;;;;5173820;28;20443;-51
2022/10/21 11:05:22;;;;;;;13.63;8.93;;;15.60;99.90;;;;;;5176924;28;20455;-50
2022/10/21 11:08:00;;;;;;;11.37;8.90;;;15.70;99.90;;;;;;5183659;28;20454;-48
2022/10/21 11:10:32;;;;;;;13.03;9.87;;;15.60;99.90;;;;;;5181174;28;20955;-48
2022/10/21 11:13:21;;;;;;;19.63;9.00;;;15.70;99.90;;;;;;5181957;28;20531;-49
2022/10/21 11:16:16;;;;;;;19.47;8.93;;;15.70;99.90;;;;;;5168593;28;20477;-50
2022/10/21 11:19:07;;;;;;;12.70;9.37;;;16.00;99.90;;;;;;5178243;28;20533;-51
2022/10/21 11:21:44;;;;;;;9.27;8.33;;;16.20;99.90;;;;;;5181630;28;20923;-50
2022/10/21 11:24:53;;;;;;;18.67;10.27;;;16.30;99.90;;;;;;5161486;28;20439;-53
2022/10/21 11:27:43;;;;;;;15.33;9.90;;;16.30;99.90;;;;;;5182797;28;20455;-51
2022/10/21 11:30:18;;;;;;;11.27;8.13;;;16.20;99.90;;;;;;5178796;28;20450;-48
2022/10/21 11:33:07;;;;;;;30.20;9.70;;;16.30;99.90;;;;;;5184704;28;20435;-53
2022/10/21 11:36:16;;;;;;;14.83;8.90;;;16.20;99.90;;;;;;5184978;28;20467;-49
2022/10/21 11:38:52;;;;;;;19.33;10.00;;;16.00;99.90;;;;;;5155101;28;20829;-49
2022/10/21 11:41:44;;;;;;;10.40;8.33;;;16.00;99.90;;;;;;5177853;28;20562;-54
2022/10/21 11:44:31;;;;;;;10.80;8.93;;;16.10;99.90;;;;;;5184386;28;20439;-49
2022/10/21 11:47:12;;;;;;;10.80;8.60;;;16.20;99.90;;;;;;5189201;28;20862;-49
2022/10/21 11:50:08;;;;;;;12.03;8.90;;;16.50;99.90;;;;;;5184032;28;20470;-48
2022/10/21 11:53:11;;;;;;;16.93;8.93;;;16.80;99.90;;;;;;5192598;28;20446;-51
2022/10/21 11:56:06;;;;;;;12.73;7.97;;;16.80;99.90;;;;;;5189222;28;20467;-51
2022/10/21 11:58:52;;;;;;;11.70;9.03;;;16.70;99.90;;;;;;5182526;28;20462;-51
2022/10/21 12:01:54;;;;;;;11.60;8.37;;;16.70;99.90;;;;;;5193156;28;20446;-50
2022/10/21 12:04:40;;;;;;;14.70;10.10;;;16.70;99.90;;;;;;5178705;28;20435;-50
2022/10/21 12:07:23;;;;;;;26.63;10.83;;;16.70;99.90;;;;;;5192510;28;20506;-49
2022/10/21 12:10:12;;;;;;;16.60;9.87;;;16.80;99.90;;;;;;5198559;28;20950;-50
2022/10/21 12:12:46;;;;;;;13.33;8.33;;;17.00;99.90;;;;;;5180654;28;20431;-49
2022/10/21 12:15:21;;;;;;;16.93;8.47;;;17.10;99.90;;;;;;5188582;28;20534;-50
2022/10/21 12:17:52;;;;;;;11.87;8.90;;;17.40;99.90;;;;;;5191133;28;20434;-49
2022/10/21 12:20:26;;;;;;;18.90;9.27;;;17.40;99.90;;;;;;5180516;28;20427;-49
2022/10/21 12:23:04;;;;;;;14.37;8.50;;;17.20;99.90;;;;;;5182873;28;20566;-50
2022/10/21 12:26:11;;;;;;;9.43;7.53;;;17.00;99.90;;;;;;5179444;28;20514;-49
2022/10/21 12:28:49;;;;;;;15.30;8.50;;;17.10;99.90;;;;;;5183753;28;20526;-49
2022/10/21 12:32:08;;;;;;;15.30;9.23;;;16.90;99.90;;;;;;5175456;28;20451;-51
2022/10/21 12:34:39;;;;;;;9.03;7.20;;;16.70;99.90;;;;;;5179813;28;20435;-50
2022/10/21 12:37:47;;;;;;;12.80;8.60;;;16.50;99.90;;;;;;5185381;28;20831;-49
2022/10/21 12:40:26;;;;;;;14.30;8.43;;;16.40;99.90;;;;;;5115301;28;20643;-50
2022/10/21 12:43:03;;;;;;;14.83;9.13;;;16.40;99.90;;;;;;5177984;28;20442;-50
2022/10/21 12:45:37;;;;;;;13.17;8.90;;;16.50;99.90;;;;;;5181982;28;20446;-50
2022/10/21 12:48:31;;;;;;;12.40;7.70;;;16.40;99.90;;;;;;5184739;28;20447;-51
2022/10/21 12:51:07;;;;;;;12.90;9.00;;;16.30;99.90;;;;;;5179979;28;20501;-50
2022/10/21 12:53:45;;;;;;;18.20;9.00;;;16.30;99.90;;;;;;5177244;28;20530;-52
2022/10/21 12:56:50;;;;;;;12.53;8.57;;;16.30;99.90;;;;;;5159291;28;20463;-51
2022/10/21 12:59:26;;;;;;;10.03;7.90;;;16.30;99.90;;;;;;5165230;28;20459;-50
2022/10/21 13:02:06;;;;;;;14.63;8.60;;;16.30;99.90;;;;;;5184217;28;20940;-51
2022/10/21 13:04:37;;;;;;;13.70;8.30;;;16.50;99.90;;;;;;5186448;28;20520;-49
2022/10/21 13:07:27;;;;;;;7.70;6.90;;;16.40;99.90;;;;;;5170349;28;20444;-50
2022/10/21 13:09:58;;;;;;;12.03;8.73;;;16.50;99.90;;;;;;5173911;28;20184;-53
2022/10/21 13:12:31;;;;;;;18.40;8.80;;;16.50;99.90;;;;;;5177582;28;20443;-53
2022/10/21 13:15:19;;;;;;;11.83;7.33;;;16.50;99.90;;;;;;5177809;28;20189;-57
2022/10/21 13:17:55;;;;;;;11.23;7.07;;;16.50;99.90;;;;;;5173773;28;21005;-49
2022/10/21 13:20:26;;;;;;;9.83;6.83;;;16.50;99.90;;;;;;5183865;28;20989;-50
2022/10/21 13:23:28;;;;;;;9.77;6.47;;;16.60;99.90;;;;;;5178951;28;20446;-50
2022/10/21 13:26:12;;;;;;;10.30;7.00;;;16.50;99.90;;;;;;5176152;28;20434;-57
2022/10/21 13:28:59;;;;;;;7.53;6.70;;;16.50;99.90;;;;;;5176993;28;20793;-51
2022/10/21 13:31:30;;;;;;;15.10;7.10;;;16.70;99.90;;;;;;5175801;28;20430;-51